Time;durP1;ratioP1;P1;durP2;ratioP2;P2;SDS_P1;SDS_P2;PMS_P1;PMS_P2;Temp;Humidity;BMP_temperature;BMP_pressure;BME280_temperature;BME280_humidity;BME280_pressure;Samples;Min_cycle;Max_cycle;Signal;HPM_P1;HPM_P2
2022/01/26 00:07:48;;;;;;;77.38;21.27;;;;;;;;;;5060742;28;20075;-70
2022/01/26 00:10:13;;;;;;;62.75;20.38;;;;;;;;;;5061342;28;20139;-70
2022/01/26 00:12:39;;;;;;;81.15;23.02;;;;;;;;;;5061255;28;20572;-70
2022/01/26 00:15:05;;;;;;;76.68;24.15;;;;;;;;;;5059772;28;20451;-71
2022/01/26 00:17:30;;;;;;;83.03;26.23;;;;;;;;;;5059890;28;20123;-70
2022/01/26 00:20:09;;;;;;;85.97;25.83;;;;;;;;;;5061226;28;20036;-70
2022/01/26 00:23:00;;;;;;;64.45;23.15;;;;;;;;;;5060970;28;20033;-70
2022/01/26 00:28:19;;;;;;;67.22;23.90;;;;;;;;;;5061070;28;20915;-70
2022/01/26 00:38:54;;;;;;;58.78;21.52;;;;;;;;;;5060884;28;20499;-70
2022/01/26 00:41:32;;;;;;;68.20;24.20;;;;;;;;;;5061250;28;20029;-70
2022/01/26 00:43:59;;;;;;;71.07;23.33;;;;;;;;;;5061036;28;20089;-71
2022/01/26 00:46:25;;;;;;;74.20;22.92;;;;;;;;;;5059489;28;20131;-70
2022/01/26 00:48:51;;;;;;;67.47;23.05;;;;;;;;;;5060525;28;20401;-70
2022/01/26 00:51:20;;;;;;;63.17;23.42;;;;;;;;;;5060992;28;20044;-70
2022/01/26 00:53:50;;;;;;;65.05;23.60;;;;;;;;;;5059089;28;20136;-70
2022/01/26 00:56:16;;;;;;;60.42;21.35;;;;;;;;;;5060434;28;20048;-70
2022/01/26 00:58:43;;;;;;;65.68;23.35;;;;;;;;;;5059395;28;20894;-70
2022/01/26 01:01:09;;;;;;;65.93;22.48;;;;;;;;;;5059611;28;20095;-70
2022/01/26 01:03:37;;;;;;;59.25;21.48;;;;;;;;;;5060648;28;20077;-70
2022/01/26 01:06:13;;;;;;;59.35;21.45;;;;;;;;;;5058506;28;20688;-71
2022/01/26 01:08:40;;;;;;;59.28;21.67;;;;;;;;;;5058479;28;20529;-70
2022/01/26 01:11:08;;;;;;;59.30;22.50;;;;;;;;;;5060451;28;20039;-70
2022/01/26 01:13:36;;;;;;;70.65;23.48;;;;;;;;;;5060509;28;20032;-70
2022/01/26 01:16:05;;;;;;;63.75;21.60;;;;;;;;;;5061667;28;20170;-70
2022/01/26 01:18:42;;;;;;;63.20;21.70;;;;;;;;;;5062796;28;20048;-71
2022/01/26 01:31:41;;;;;;;78.95;24.13;;;;;;;;;;5061179;28;20119;-70
2022/01/26 01:34:08;;;;;;;66.18;23.33;;;;;;;;;;5044343;28;20028;-70
2022/01/26 01:36:36;;;;;;;72.15;22.85;;;;;;;;;;5063060;28;20037;-70
2022/01/26 01:39:03;;;;;;;76.07;22.38;;;;;;;;;;5063799;28;20085;-70
2022/01/26 01:41:28;;;;;;;116.40;23.05;;;;;;;;;;5061677;28;20037;-70
2022/01/26 01:43:54;;;;;;;92.65;21.73;;;;;;;;;;5063821;28;20437;-71
2022/01/26 01:46:19;;;;;;;72.45;23.23;;;;;;;;;;5068892;28;20048;-70
2022/01/26 01:48:44;;;;;;;86.70;24.15;;;;;;;;;;5063674;28;20113;-70
2022/01/26 01:51:14;;;;;;;73.90;21.67;;;;;;;;;;5063194;28;20036;-70
2022/01/26 01:53:41;;;;;;;91.30;22.63;;;;;;;;;;5062300;28;20044;-70
2022/01/26 01:56:10;;;;;;;81.40;22.38;;;;;;;;;;5079302;28;20047;-71
2022/01/26 01:58:37;;;;;;;91.95;23.60;;;;;;;;;;5063502;28;20071;-70
2022/01/26 02:01:03;;;;;;;70.38;23.15;;;;;;;;;;5063447;28;20029;-70
2022/01/26 02:03:29;;;;;;;88.10;24.17;;;;;;;;;;5062767;28;20108;-71
2022/01/26 02:05:55;;;;;;;74.75;20.15;;;;;;;;;;5063095;28;20479;-71
2022/01/26 02:08:20;;;;;;;92.30;21.63;;;;;;;;;;5078701;28;20032;-70
2022/01/26 02:10:46;;;;;;;58.45;22.00;;;;;;;;;;5063046;28;20063;-70
2022/01/26 02:13:21;;;;;;;123.47;23.45;;;;;;;;;;5061502;28;20417;-70
2022/01/26 02:51:41;;;;;;;103.53;19.40;;;;;;;;;;5063032;28;20094;-70
2022/01/26 02:56:25;;;;;;;391.92;23.30;;;;;;;;;;5058716;28;20043;-70
2022/01/26 03:06:49;;;;;;;125.15;19.70;;;;;;;;;;5062549;28;20066;-70
2022/01/26 03:09:20;;;;;;;164.63;17.50;;;;;;;;;;5060265;28;20524;-70
2022/01/26 03:11:47;;;;;;;111.03;15.20;;;;;;;;;;5062466;28;20661;-70
2022/01/26 03:16:47;;;;;;;88.22;17.63;;;;;;;;;;5062201;28;20032;-71
2022/01/26 03:30:03;;;;;;;62.80;17.40;;;;;;;;;;5061797;28;20083;-70
2022/01/26 03:35:00;;;;;;;85.82;19.95;;;;;;;;;;5061259;28;20067;-70
2022/01/26 03:37:36;;;;;;;145.48;17.50;;;;;;;;;;5061935;28;21002;-70
2022/01/26 03:40:11;;;;;;;96.82;18.80;;;;;;;;;;5061687;28;20037;-70
2022/01/26 03:42:36;;;;;;;125.82;18.98;;;;;;;;;;5060572;28;20040;-70
2022/01/26 03:45:02;;;;;;;66.13;17.30;;;;;;;;;;5061591;28;20512;-70
2022/01/26 03:47:27;;;;;;;65.30;17.90;;;;;;;;;;5060244;28;20032;-70
2022/01/26 03:49:53;;;;;;;62.55;19.05;;;;;;;;;;5061852;28;20059;-70
2022/01/26 03:52:18;;;;;;;125.05;18.88;;;;;;;;;;5060607;28;20044;-70
2022/01/26 03:54:43;;;;;;;68.55;16.42;;;;;;;;;;5061277;28;20039;-70
2022/01/26 03:57:09;;;;;;;129.85;18.75;;;;;;;;;;5061064;28;20066;-70
2022/01/26 03:59:34;;;;;;;97.95;19.02;;;;;;;;;;5061733;28;20125;-70
2022/01/26 04:02:00;;;;;;;88.80;17.20;;;;;;;;;;5061271;28;20190;-70
2022/01/26 04:04:25;;;;;;;71.43;17.42;;;;;;;;;;5060545;28;20132;-70
2022/01/26 04:06:51;;;;;;;46.05;15.43;;;;;;;;;;5061123;28;20028;-70
2022/01/26 04:09:18;;;;;;;126.80;17.55;;;;;;;;;;5060945;28;20481;-70
2022/01/26 04:11:48;;;;;;;50.38;17.38;;;;;;;;;;5059816;28;20197;-70
2022/01/26 04:14:16;;;;;;;110.65;17.13;;;;;;;;;;5060235;28;20085;-70
2022/01/26 04:16:43;;;;;;;49.55;16.75;;;;;;;;;;5059067;28;20378;-70
2022/01/26 04:19:09;;;;;;;65.63;17.17;;;;;;;;;;5060851;28;20168;-70
2022/01/26 04:24:09;;;;;;;69.53;16.10;;;;;;;;;;5059508;28;20938;-70
2022/01/26 04:26:49;;;;;;;74.50;17.23;;;;;;;;;;5059934;28;20136;-70
2022/01/26 04:29:24;;;;;;;65.78;17.83;;;;;;;;;;5061135;28;20040;-70
2022/01/26 04:31:50;;;;;;;137.75;18.08;;;;;;;;;;5060899;28;20905;-70
2022/01/26 04:34:15;;;;;;;75.45;16.70;;;;;;;;;;5066480;28;20475;-70
2022/01/26 04:36:48;;;;;;;121.05;17.10;;;;;;;;;;5059718;28;20039;-70
2022/01/26 04:39:19;;;;;;;81.07;15.77;;;;;;;;;;5061204;28;20454;-70
2022/01/26 04:44:46;;;;;;;88.87;17.77;;;;;;;;;;5052306;28;20052;-70
2022/01/26 04:47:12;;;;;;;104.22;18.27;;;;;;;;;;5059565;28;20056;-70
2022/01/26 04:49:37;;;;;;;126.13;18.15;;;;;;;;;;5060282;28;20036;-70
2022/01/26 04:52:03;;;;;;;107.78;16.83;;;;;;;;;;5060522;28;20032;-70
2022/01/26 04:54:30;;;;;;;128.63;18.92;;;;;;;;;;5059015;28;20428;-70
2022/01/26 04:56:55;;;;;;;133.18;17.55;;;;;;;;;;5059597;28;20040;-70
2022/01/26 04:59:21;;;;;;;92.43;15.05;;;;;;;;;;5059682;28;20044;-70
2022/01/26 05:01:46;;;;;;;240.43;18.63;;;;;;;;;;5060584;28;20032;-70
2022/01/26 05:04:11;;;;;;;74.22;16.50;;;;;;;;;;5060568;28;20519;-70
2022/01/26 05:06:37;;;;;;;96.63;15.55;;;;;;;;;;5060710;28;20588;-70
2022/01/26 05:09:04;;;;;;;273.70;20.05;;;;;;;;;;5060491;28;20021;-70
2022/01/26 05:11:38;;;;;;;146.43;15.88;;;;;;;;;;5057546;28;20036;-70
2022/01/26 05:14:04;;;;;;;89.43;15.70;;;;;;;;;;5062385;28;20033;-70
2022/01/26 05:16:30;;;;;;;88.43;16.63;;;;;;;;;;5060132;28;20128;-69
2022/01/26 05:18:56;;;;;;;84.78;15.93;;;;;;;;;;5060525;28;20040;-70
2022/01/26 05:21:23;;;;;;;208.30;16.75;;;;;;;;;;5059803;28;20067;-70
2022/01/26 05:23:49;;;;;;;155.32;14.70;;;;;;;;;;5060556;28;20127;-70
2022/01/26 05:26:15;;;;;;;71.82;14.63;;;;;;;;;;5060043;28;20032;-70
2022/01/26 05:28:40;;;;;;;78.18;15.10;;;;;;;;;;5060457;28;20043;-70
2022/01/26 05:31:06;;;;;;;84.60;14.98;;;;;;;;;;5060095;28;20542;-70
2022/01/26 05:33:31;;;;;;;81.68;13.38;;;;;;;;;;5060379;28;20066;-70
2022/01/26 05:35:57;;;;;;;79.18;14.18;;;;;;;;;;5075695;28;20858;-70
2022/01/26 05:38:23;;;;;;;48.15;14.55;;;;;;;;;;5060264;28;20047;-70
2022/01/26 05:40:50;;;;;;;69.28;14.75;;;;;;;;;;5060225;28;20036;-70
2022/01/26 05:43:15;;;;;;;144.18;15.98;;;;;;;;;;5059116;28;20036;-70
2022/01/26 05:45:45;;;;;;;92.55;14.57;;;;;;;;;;5058376;28;20039;-70
2022/01/26 05:48:12;;;;;;;92.28;14.20;;;;;;;;;;5060326;28;20036;-70
2022/01/26 05:50:38;;;;;;;232.40;19.05;;;;;;;;;;5059907;28;20045;-70
2022/01/26 05:53:05;;;;;;;66.45;14.10;;;;;;;;;;5059991;28;20540;-70
2022/01/26 05:55:30;;;;;;;89.13;13.45;;;;;;;;;;5059015;28;20033;-70
2022/01/26 05:57:55;;;;;;;63.60;13.95;;;;;;;;;;5059597;28;20024;-70
2022/01/26 06:00:21;;;;;;;80.93;12.75;;;;;;;;;;5060629;28;20031;-70
2022/01/26 06:02:47;;;;;;;176.70;13.93;;;;;;;;;;5061515;28;20048;-70
2022/01/26 06:05:12;;;;;;;71.45;11.60;;;;;;;;;;5062562;28;20151;-70
2022/01/26 06:07:38;;;;;;;64.55;9.65;;;;;;;;;;5063337;28;20037;-70
2022/01/26 06:10:05;;;;;;;99.72;12.93;;;;;;;;;;5063765;28;20082;-70
2022/01/26 06:12:33;;;;;;;146.02;13.77;;;;;;;;;;5063413;28;20074;-70
2022/01/26 06:15:03;;;;;;;151.60;14.50;;;;;;;;;;5063435;28;20028;-70
2022/01/26 06:17:29;;;;;;;123.45;12.57;;;;;;;;;;5062318;28;20117;-70
2022/01/26 06:19:55;;;;;;;71.95;12.13;;;;;;;;;;5063191;28;20121;-70
2022/01/26 06:22:20;;;;;;;107.47;12.38;;;;;;;;;;5062826;28;20095;-70
2022/01/26 06:24:46;;;;;;;164.15;12.30;;;;;;;;;;5063167;28;20089;-70
2022/01/26 06:27:11;;;;;;;245.02;14.15;;;;;;;;;;5061844;28;20131;-70
2022/01/26 06:29:37;;;;;;;68.50;10.82;;;;;;;;;;5063282;28;20047;-70
2022/01/26 06:32:03;;;;;;;190.20;11.75;;;;;;;;;;5063115;28;20043;-70
2022/01/26 06:34:28;;;;;;;138.82;11.88;;;;;;;;;;5063292;28;20064;-71
2022/01/26 06:36:54;;;;;;;237.20;13.45;;;;;;;;;;5063293;28;20036;-71
2022/01/26 06:39:19;;;;;;;214.35;11.77;;;;;;;;;;5061880;28;20024;-71
2022/01/26 06:41:54;;;;;;;71.47;10.93;;;;;;;;;;5062990;28;20044;-70
2022/01/26 06:44:29;;;;;;;98.72;10.07;;;;;;;;;;5062527;28;20042;-72
2022/01/26 06:51:52;;;;;;;58.53;10.60;;;;;;;;;;5061428;28;20400;-72
2022/01/26 06:54:18;;;;;;;74.00;10.95;;;;;;;;;;5062579;28;20087;-74
2022/01/26 06:56:45;;;;;;;42.20;10.00;;;;;;;;;;5062726;28;20040;-73
2022/01/26 06:59:11;;;;;;;67.85;10.75;;;;;;;;;;5061802;28;20044;-73
2022/01/26 07:01:36;;;;;;;60.97;11.10;;;;;;;;;;5059462;28;20040;-73
2022/01/26 07:04:02;;;;;;;65.90;11.07;;;;;;;;;;5059807;28;20051;-73
2022/01/26 07:06:28;;;;;;;49.40;10.85;;;;;;;;;;5060402;28;20622;-74
2022/01/26 07:08:53;;;;;;;51.38;11.15;;;;;;;;;;5061240;28;20040;-74
2022/01/26 07:11:19;;;;;;;50.95;12.63;;;;;;;;;;5060875;28;20424;-74
2022/01/26 07:13:45;;;;;;;44.53;12.30;;;;;;;;;;5060943;28;20393;-73
2022/01/26 07:21:39;;;;;;;71.85;12.55;;;;;;;;;;5061565;28;20070;-74
2022/01/26 07:24:05;;;;;;;27.23;13.32;;;;;;;;;;5062083;28;20122;-73
2022/01/26 07:26:31;;;;;;;35.75;16.10;;;;;;;;;;5061884;28;20033;-72
2022/01/26 07:29:06;;;;;;;32.35;13.48;;;;;;;;;;5077415;28;20048;-73
2022/01/26 07:31:33;;;;;;;28.02;12.77;;;;;;;;;;5060262;28;20058;-73
2022/01/26 07:33:59;;;;;;;30.70;12.93;;;;;;;;;;5075648;28;20044;-72
2022/01/26 07:36:25;;;;;;;33.45;10.70;;;;;;;;;;5058910;28;20033;-71
2022/01/26 07:38:54;;;;;;;25.77;11.70;;;;;;;;;;5060405;28;20075;-73
2022/01/26 07:41:19;;;;;;;30.88;12.10;;;;;;;;;;5061661;28;20090;-71
2022/01/26 07:43:45;;;;;;;24.48;10.60;;;;;;;;;;5060299;28;20044;-71
2022/01/26 07:46:12;;;;;;;18.52;9.63;;;;;;;;;;5059209;28;20029;-72
2022/01/26 07:48:38;;;;;;;16.42;9.77;;;;;;;;;;5060627;28;20032;-72
2022/01/26 07:51:04;;;;;;;21.63;10.27;;;;;;;;;;5043556;28;20047;-72
2022/01/26 07:53:29;;;;;;;18.98;10.88;;;;;;;;;;5061327;28;20028;-71
2022/01/26 07:55:56;;;;;;;21.00;10.05;;;;;;;;;;5060183;28;20036;-73
2022/01/26 07:58:22;;;;;;;41.83;11.07;;;;;;;;;;5061171;28;20044;-71
2022/01/26 08:00:48;;;;;;;38.20;11.20;;;;;;;;;;5060038;28;20103;-72
2022/01/26 08:03:14;;;;;;;80.72;10.55;;;;;;;;;;5059442;28;20893;-72
2022/01/26 08:05:40;;;;;;;22.88;10.63;;;;;;;;;;5060846;28;20041;-71
2022/01/26 08:08:05;;;;;;;16.88;9.88;;;;;;;;;;5059584;28;21049;-72
2022/01/26 08:10:31;;;;;;;14.52;9.32;;;;;;;;;;5060864;28;20037;-74
2022/01/26 08:12:56;;;;;;;16.73;10.45;;;;;;;;;;5059272;28;20162;-72
2022/01/26 08:15:23;;;;;;;15.07;9.68;;;;;;;;;;5060815;28;20047;-71
2022/01/26 08:17:48;;;;;;;14.07;10.10;;;;;;;;;;5059903;28;20033;-73
2022/01/26 08:20:14;;;;;;;15.73;9.57;;;;;;;;;;5060489;28;20051;-74
2022/01/26 08:22:40;;;;;;;14.02;9.75;;;;;;;;;;5060456;28;20574;-75
2022/01/26 08:25:06;;;;;;;14.88;9.95;;;;;;;;;;5058359;28;20059;-73
2022/01/26 08:27:39;;;;;;;17.50;10.40;;;;;;;;;;5061263;28;20102;-74
2022/01/26 08:30:09;;;;;;;15.13;9.15;;;;;;;;;;5059661;28;20051;-74
2022/01/26 08:32:35;;;;;;;13.02;9.50;;;;;;;;;;5057651;28;20085;-74
2022/01/26 08:35:00;;;;;;;14.95;10.38;;;;;;;;;;5076504;28;20032;-71
2022/01/26 08:37:26;;;;;;;15.70;10.23;;;;;;;;;;5060608;28;20420;-71
2022/01/26 08:39:51;;;;;;;16.52;10.32;;;;;;;;;;5059887;28;20039;-74
2022/01/26 08:42:17;;;;;;;12.18;9.15;;;;;;;;;;5059530;28;20140;-74
2022/01/26 08:44:42;;;;;;;13.82;9.30;;;;;;;;;;5059112;28;20044;-73
2022/01/26 08:47:08;;;;;;;14.68;9.38;;;;;;;;;;5054250;28;20055;-72
2022/01/26 08:49:34;;;;;;;12.77;8.95;;;;;;;;;;5056588;28;20119;-71
2022/01/26 08:52:00;;;;;;;14.70;9.73;;;;;;;;;;5058799;28;20044;-73
2022/01/26 08:54:26;;;;;;;12.32;8.07;;;;;;;;;;5055517;28;20127;-73
2022/01/26 08:56:53;;;;;;;13.68;8.65;;;;;;;;;;5056483;28;20148;-75
2022/01/26 08:59:20;;;;;;;13.40;9.10;;;;;;;;;;5058240;28;20161;-74
2022/01/26 09:01:45;;;;;;;13.05;8.95;;;;;;;;;;5042649;28;20041;-72
2022/01/26 09:04:12;;;;;;;11.73;8.82;;;;;;;;;;5064693;28;20140;-73
2022/01/26 09:06:49;;;;;;;12.88;9.38;;;;;;;;;;5036565;28;20024;-73
2022/01/26 09:09:20;;;;;;;11.57;8.60;;;;;;;;;;5058226;28;20136;-73
2022/01/26 09:11:47;;;;;;;14.18;8.70;;;;;;;;;;5057529;28;20032;-72
2022/01/26 09:14:18;;;;;;;12.25;8.50;;;;;;;;;;5059361;28;20029;-72
2022/01/26 09:16:45;;;;;;;12.82;9.57;;;;;;;;;;5057443;28;20091;-72
2022/01/26 09:19:26;;;;;;;15.70;11.90;;;;;;;;;;5058903;28;20468;-73
2022/01/26 09:21:52;;;;;;;15.48;11.07;;;;;;;;;;5052599;28;20047;-73
2022/01/26 09:24:18;;;;;;;18.92;12.65;;;;;;;;;;5057125;28;20032;-73
2022/01/26 09:26:43;;;;;;;15.02;11.75;;;;;;;;;;5056163;28;20039;-73
2022/01/26 09:29:09;;;;;;;17.77;11.98;;;;;;;;;;5058437;28;20036;-73
2022/01/26 09:31:34;;;;;;;14.23;10.43;;;;;;;;;;5057859;28;20500;-73
2022/01/26 09:34:00;;;;;;;16.30;9.73;;;;;;;;;;5056118;28;20485;-74
2022/01/26 09:36:25;;;;;;;13.25;9.20;;;;;;;;;;5059345;28;20033;-73
2022/01/26 09:38:51;;;;;;;14.52;10.60;;;;;;;;;;5060347;28;20052;-74
2022/01/26 09:41:19;;;;;;;15.60;11.38;;;;;;;;;;5042992;28;20094;-74
2022/01/26 09:43:45;;;;;;;16.95;10.13;;;;;;;;;;5061288;28;20082;-74
2022/01/26 09:46:14;;;;;;;16.70;10.55;;;;;;;;;;5062579;28;20028;-73
2022/01/26 09:48:42;;;;;;;24.98;10.55;;;;;;;;;;5062284;28;20040;-73
2022/01/26 09:51:12;;;;;;;17.55;11.73;;;;;;;;;;5062332;28;20032;-73
2022/01/26 09:53:37;;;;;;;16.20;11.15;;;;;;;;;;5063720;28;20036;-74
2022/01/26 09:56:03;;;;;;;14.63;10.05;;;;;;;;;;5061075;28;20078;-73
2022/01/26 09:58:29;;;;;;;15.05;10.63;;;;;;;;;;5062566;28;20059;-72
2022/01/26 10:01:03;;;;;;;16.25;9.45;;;;;;;;;;5063211;28;20043;-73
2022/01/26 10:03:35;;;;;;;14.70;9.35;;;;;;;;;;5062718;28;20046;-73
2022/01/26 10:06:02;;;;;;;13.70;9.18;;;;;;;;;;5045543;28;21003;-73
2022/01/26 10:19:03;;;;;;;16.90;9.68;;;;;;;;;;5061992;28;20044;-71
2022/01/26 10:21:29;;;;;;;17.25;10.10;;;;;;;;;;5063374;28;20032;-76
2022/01/26 10:23:58;;;;;;;14.88;9.70;;;;;;;;;;5063360;28;20086;-74
2022/01/26 10:26:23;;;;;;;16.75;10.75;;;;;;;;;;5077570;28;20549;-74
2022/01/26 10:29:02;;;;;;;16.35;9.85;;;;;;;;;;5061858;28;20041;-73
2022/01/26 10:31:28;;;;;;;15.48;8.10;;;;;;;;;;5061610;28;20043;-73
2022/01/26 10:34:10;;;;;;;15.93;9.15;;;;;;;;;;5044687;28;20041;-73
2022/01/26 10:36:40;;;;;;;16.40;10.52;;;;;;;;;;5078488;28;20047;-73
2022/01/26 10:39:36;;;;;;;19.85;9.80;;;;;;;;;;5061106;28;20048;-73
2022/01/26 10:42:06;;;;;;;11.40;7.53;;;;;;;;;;5062895;28;20521;-73
2022/01/26 10:44:42;;;;;;;9.90;6.70;;;;;;;;;;5062992;28;20036;-72
2022/01/26 10:47:09;;;;;;;13.32;8.30;;;;;;;;;;5062320;28;20094;-72
2022/01/26 10:54:48;;;;;;;12.85;7.55;;;;;;;;;;5060443;28;20126;-71
2022/01/26 10:57:14;;;;;;;16.02;10.30;;;;;;;;;;5062123;28;20033;-71
2022/01/26 10:59:42;;;;;;;12.90;8.05;;;;;;;;;;5061704;28;21020;-72
2022/01/26 11:02:10;;;;;;;14.43;8.73;;;;;;;;;;5061409;28;20036;-71
2022/01/26 11:04:37;;;;;;;15.35;9.80;;;;;;;;;;5062226;28;20040;-72
2022/01/26 11:07:06;;;;;;;17.50;10.93;;;;;;;;;;5060947;28;20032;-73
2022/01/26 11:09:35;;;;;;;15.07;9.43;;;;;;;;;;5060927;28;20064;-74
2022/01/26 11:12:06;;;;;;;18.67;10.38;;;;;;;;;;5060779;28;20047;-73
2022/01/26 11:14:47;;;;;;;15.70;8.38;;;;;;;;;;5061714;28;20367;-73
2022/01/26 11:17:37;;;;;;;16.45;9.00;;;;;;;;;;5061129;28;20036;-73
2022/01/26 11:20:35;;;;;;;15.35;9.50;;;;;;;;;;5062384;28;20086;-73
2022/01/26 11:23:03;;;;;;;14.68;9.32;;;;;;;;;;5062493;28;20101;-73
2022/01/26 11:25:40;;;;;;;16.80;9.60;;;;;;;;;;5061870;28;20037;-73
2022/01/26 11:28:17;;;;;;;18.55;9.15;;;;;;;;;;5062302;28;20537;-73
2022/01/26 11:30:42;;;;;;;16.70;9.25;;;;;;;;;;5061074;28;20038;-73
2022/01/26 11:33:25;;;;;;;16.17;9.93;;;;;;;;;;5062635;28;20126;-74
2022/01/26 11:35:53;;;;;;;22.67;11.30;;;;;;;;;;5060654;28;20127;-74
2022/01/26 11:46:32;;;;;;;17.30;10.50;;;;;;;;;;5059687;28;20119;-73
2022/01/26 11:49:07;;;;;;;17.98;10.85;;;;;;;;;;5062173;28;20107;-75
2022/01/26 11:51:39;;;;;;;16.25;11.00;;;;;;;;;;5062150;28;20135;-73
2022/01/26 11:54:16;;;;;;;25.35;11.75;;;;;;;;;;5061819;28;20033;-74
2022/01/26 11:57:07;;;;;;;26.38;11.93;;;;;;;;;;5051718;28;20126;-74
2022/01/26 11:59:36;;;;;;;21.60;10.98;;;;;;;;;;5059931;28;20041;-74
2022/01/26 12:02:19;;;;;;;16.67;10.02;;;;;;;;;;5058993;28;20040;-73
2022/01/26 12:04:55;;;;;;;28.30;11.45;;;;;;;;;;5061691;28;20078;-73
2022/01/26 12:07:24;;;;;;;18.10;9.75;;;;;;;;;;5059191;28;20461;-73
2022/01/26 12:09:50;;;;;;;17.80;9.13;;;;;;;;;;5060026;28;20762;-72
2022/01/26 12:12:17;;;;;;;20.67;11.98;;;;;;;;;;5059244;28;20042;-71
2022/01/26 12:14:45;;;;;;;20.27;11.10;;;;;;;;;;5058024;28;20039;-72
2022/01/26 12:17:24;;;;;;;17.67;10.63;;;;;;;;;;5057815;28;20524;-72
2022/01/26 12:20:10;;;;;;;19.27;10.30;;;;;;;;;;5058442;28;20077;-73
2022/01/26 12:36:30;;;;;;;34.38;21.75;;;;;;;;;;5060438;28;20772;-71
2022/01/26 12:38:57;;;;;;;21.85;12.25;;;;;;;;;;5060268;28;20561;-71
2022/01/26 12:41:35;;;;;;;39.17;24.17;;;;;;;;;;5058654;28;20040;-72
2022/01/26 12:44:08;;;;;;;29.48;18.63;;;;;;;;;;5058643;28;20135;-73
2022/01/26 12:46:36;;;;;;;29.95;18.05;;;;;;;;;;5060349;28;20036;-73
2022/01/26 12:49:08;;;;;;;29.13;15.93;;;;;;;;;;5060218;28;20109;-73
2022/01/26 12:51:41;;;;;;;;;;;;;;;;;;5060166;28;20036;-73
2022/01/26 12:54:06;;;;;;;28.23;16.25;;;;;;;;;;5060542;28;19920;-73
2022/01/26 12:56:32;;;;;;;32.10;18.58;;;;;;;;;;5052226;28;20051;-73
2022/01/26 12:59:06;;;;;;;22.77;13.30;;;;;;;;;;5072116;28;20063;-75
2022/01/26 13:01:32;;;;;;;27.83;13.85;;;;;;;;;;5027736;28;20469;-75
2022/01/26 13:04:03;;;;;;;24.73;15.88;;;;;;;;;;5055177;28;20086;-71
2022/01/26 13:06:31;;;;;;;28.23;14.25;;;;;;;;;;5053570;28;20115;-74
2022/01/26 13:08:58;;;;;;;26.50;15.45;;;;;;;;;;5053559;28;20044;-73
2022/01/26 13:11:29;;;;;;;26.98;14.30;;;;;;;;;;5055384;28;20046;-73
2022/01/26 13:14:16;;;;;;;22.98;12.98;;;;;;;;;;5058746;28;20041;-73
2022/01/26 13:17:06;;;;;;;25.75;13.07;;;;;;;;;;5058612;28;20451;-73
2022/01/26 13:19:48;;;;;;;29.20;13.50;;;;;;;;;;5060233;28;20044;-71
2022/01/26 13:30:06;;;;;;;24.38;13.20;;;;;;;;;;5060597;28;20040;-72
2022/01/26 13:35:13;;;;;;;28.63;15.25;;;;;;;;;;5061581;28;20473;-74
2022/01/26 13:43:16;;;;;;;27.77;14.57;;;;;;;;;;5061235;28;20036;-73
2022/01/26 13:48:39;;;;;;;36.88;18.33;;;;;;;;;;5048138;28;20041;-71
2022/01/26 13:51:20;;;;;;;32.20;16.10;;;;;;;;;;5061929;28;20135;-71
2022/01/26 13:56:17;;;;;;;39.95;20.08;;;;;;;;;;5061025;28;20394;-70
2022/01/26 13:58:59;;;;;;;35.05;19.90;;;;;;;;;;5059862;28;20940;-72
2022/01/26 14:01:24;;;;;;;39.30;20.02;;;;;;;;;;5061524;28;20558;-71
2022/01/26 14:03:55;;;;;;;37.55;18.90;;;;;;;;;;5061637;28;20032;-72
2022/01/26 14:06:21;;;;;;;25.30;13.95;;;;;;;;;;5060184;28;20074;-72
2022/01/26 14:08:46;;;;;;;45.60;21.65;;;;;;;;;;5059456;28;20036;-72
2022/01/26 14:11:12;;;;;;;36.13;18.42;;;;;;;;;;5060725;28;20537;-72
2022/01/26 14:13:38;;;;;;;38.35;18.67;;;;;;;;;;5060907;28;20032;-70
2022/01/26 14:16:05;;;;;;;44.67;19.67;;;;;;;;;;5060926;28;20173;-72
2022/01/26 14:18:42;;;;;;;39.00;20.02;;;;;;;;;;5059594;28;20047;-72
2022/01/26 14:26:16;;;;;;;45.08;21.25;;;;;;;;;;5061304;28;20024;-71
2022/01/26 14:28:41;;;;;;;33.70;18.60;;;;;;;;;;5061036;28;20033;-71
2022/01/26 14:55:57;;;;;;;50.10;23.42;;;;;;;;;;5062008;28;20048;-71
2022/01/26 15:09:34;;;;;;;47.80;23.23;;;;;;;;;;5062707;28;20477;-71
2022/01/26 15:52:03;;;;;;;56.13;22.50;;;;;;;;;;5060977;28;20505;-69
2022/01/26 16:16:59;;;;;;;54.88;24.23;;;;;;;;;;5058842;28;20041;-70
2022/01/26 16:35:40;;;;;;;70.97;25.13;;;;;;;;;;5059693;28;20032;-70
2022/01/26 17:03:30;;;;;;;59.03;25.75;;;;;;;;;;5060131;28;20397;-70
2022/01/26 17:46:40;;;;;;;57.53;25.13;;;;;;;;;;5054071;28;20040;-72
2022/01/26 18:16:40;;;;;;;61.75;29.35;;;;;;;;;;5059537;28;20378;-70
2022/01/26 18:49:18;;;;;;;61.30;22.67;;;;;;;;;;5060952;28;20032;-71
2022/01/26 18:51:55;;;;;;;68.80;28.55;;;;;;;;;;5060846;28;20405;-72
2022/01/26 18:54:24;;;;;;;45.33;19.70;;;;;;;;;;5060451;28;20047;-72
2022/01/26 18:56:51;;;;;;;82.60;33.78;;;;;;;;;;5060115;28;20403;-72
2022/01/26 18:59:17;;;;;;;35.20;16.80;;;;;;;;;;5059562;28;20451;-72
2022/01/26 19:01:44;;;;;;;72.53;29.90;;;;;;;;;;5060895;28;20032;-71
2022/01/26 19:04:10;;;;;;;65.53;27.02;;;;;;;;;;5059158;28;20181;-69
2022/01/26 19:06:41;;;;;;;113.05;43.95;;;;;;;;;;5060389;28;20102;-71
2022/01/26 19:09:07;;;;;;;58.85;23.38;;;;;;;;;;5059975;28;20032;-72
2022/01/26 19:11:33;;;;;;;70.38;28.95;;;;;;;;;;5060118;28;20670;-70
2022/01/26 19:14:00;;;;;;;69.25;26.65;;;;;;;;;;5060552;28;20055;-72
2022/01/26 19:16:36;;;;;;;62.72;25.10;;;;;;;;;;5059702;28;20036;-72
2022/01/26 19:24:49;;;;;;;59.00;21.63;;;;;;;;;;5061288;28;20025;-71
2022/01/26 19:30:00;;;;;;;60.78;23.38;;;;;;;;;;5058972;28;20095;-70
2022/01/26 19:41:30;;;;;;;57.58;24.83;;;;;;;;;;5047764;28;20059;-70
2022/01/26 19:46:01;;;;;;;44.90;17.58;;;;;;;;;;5059388;28;20099;-70
2022/01/26 19:51:11;;;;;;;63.33;25.00;;;;;;;;;;5059366;28;20103;-71
2022/01/26 19:53:38;;;;;;;65.28;26.77;;;;;;;;;;5059986;28;20087;-71
2022/01/26 19:56:04;;;;;;;65.15;25.50;;;;;;;;;;5059904;28;20032;-71
2022/01/26 19:58:29;;;;;;;45.08;17.85;;;;;;;;;;5060932;28;20524;-71
2022/01/26 20:00:55;;;;;;;59.88;25.27;;;;;;;;;;5057965;28;20040;-71
2022/01/26 20:03:21;;;;;;;63.50;22.77;;;;;;;;;;5059668;28;20036;-71
2022/01/26 20:05:48;;;;;;;61.80;26.60;;;;;;;;;;5059601;28;20585;-71
2022/01/26 20:11:24;;;;;;;25.33;15.50;;;;;;;;;;5050908;28;20673;-71
2022/01/26 20:13:49;;;;;;;26.15;13.38;;;;;;;;;;5060395;28;20033;-71
2022/01/26 20:16:15;;;;;;;59.08;24.00;;;;;;;;;;5059822;28;20051;-71
2022/01/26 20:18:40;;;;;;;50.90;22.00;;;;;;;;;;5060512;28;20116;-71
2022/01/26 20:21:07;;;;;;;65.97;26.38;;;;;;;;;;5059111;28;21090;-71
2022/01/26 20:23:36;;;;;;;39.45;14.75;;;;;;;;;;5059332;28;20039;-70
2022/01/26 20:26:05;;;;;;;68.15;24.50;;;;;;;;;;5059195;28;20074;-71
2022/01/26 20:28:34;;;;;;;42.55;18.92;;;;;;;;;;5060384;28;20040;-71
2022/01/26 20:31:01;;;;;;;46.72;18.98;;;;;;;;;;5059615;28;20052;-71
2022/01/26 20:33:27;;;;;;;63.28;23.70;;;;;;;;;;5059505;28;20044;-71
2022/01/26 20:35:52;;;;;;;55.70;23.75;;;;;;;;;;5059791;28;20048;-71
2022/01/26 20:38:18;;;;;;;44.45;20.17;;;;;;;;;;5075601;28;20052;-71
2022/01/26 20:40:43;;;;;;;62.22;26.52;;;;;;;;;;5060555;28;20047;-72
2022/01/26 20:43:10;;;;;;;60.97;26.00;;;;;;;;;;5059404;28;20047;-72
2022/01/26 20:45:35;;;;;;;60.25;26.42;;;;;;;;;;5059206;28;21020;-72
2022/01/26 20:48:02;;;;;;;60.75;24.92;;;;;;;;;;5060403;28;20037;-72
2022/01/26 20:50:31;;;;;;;52.00;20.20;;;;;;;;;;5059854;28;20094;-72
2022/01/26 20:52:57;;;;;;;31.77;14.02;;;;;;;;;;5060551;28;20032;-71
2022/01/26 20:55:22;;;;;;;34.90;17.80;;;;;;;;;;5060239;28;20048;-72
2022/01/26 20:57:48;;;;;;;38.33;17.70;;;;;;;;;;5060408;28;20101;-72
2022/01/26 21:00:16;;;;;;;52.45;22.55;;;;;;;;;;5076634;28;20040;-72
2022/01/26 21:02:48;;;;;;;54.67;21.25;;;;;;;;;;5060610;28;20042;-72
2022/01/26 21:05:15;;;;;;;45.25;19.15;;;;;;;;;;5061246;28;20036;-72
2022/01/26 21:07:41;;;;;;;67.47;27.02;;;;;;;;;;5060745;28;20554;-72
2022/01/26 21:10:09;;;;;;;51.45;20.63;;;;;;;;;;5061276;28;20032;-71
2022/01/26 21:12:35;;;;;;;60.38;26.83;;;;;;;;;;5061346;28;20108;-71
2022/01/26 21:15:02;;;;;;;51.58;21.95;;;;;;;;;;5060753;28;20036;-72
2022/01/26 21:17:28;;;;;;;35.03;16.73;;;;;;;;;;5059519;28;20455;-72
2022/01/26 21:19:53;;;;;;;54.60;23.83;;;;;;;;;;5061148;28;20779;-71
2022/01/26 21:22:19;;;;;;;72.93;26.70;;;;;;;;;;5061010;28;20044;-71
2022/01/26 21:24:44;;;;;;;65.47;26.15;;;;;;;;;;5059916;28;20141;-72
2022/01/26 21:27:10;;;;;;;53.35;21.70;;;;;;;;;;5059388;28;20532;-72
2022/01/26 21:29:35;;;;;;;54.38;23.48;;;;;;;;;;5075630;28;20043;-72
2022/01/26 21:32:01;;;;;;;57.13;25.55;;;;;;;;;;5060647;28;20028;-70
2022/01/26 21:34:27;;;;;;;48.20;21.15;;;;;;;;;;5065118;28;20119;-72
2022/01/26 21:36:52;;;;;;;32.90;14.18;;;;;;;;;;5063970;28;20153;-73
2022/01/26 21:39:18;;;;;;;55.60;21.80;;;;;;;;;;5063734;28;20039;-72